Terminal Aerodrome Forecast
Issued by NWS

Home | Current Version | Previous Version | Graphics & Text | Print | Product List | Glossary On
Versions: 1 2 3 4 5 6 7 8 9 10 11 12 13 14 15 16 17 18 19 20 21 22 23
608
FTUS42 KMHX 222227 AAG
TAFPGV
TAF AMD
KPGV 222227Z 2222/2318 05006KT P6SM VCTS BKN035CB
      TEMPO 2222/2224 VRB20KT 2SM TSRA BKN025CB
     FM230000 05006KT P6SM VCTS BKN025CB
     FM230200 05005KT P6SM VCSH BKN008 OVC025
     FM230900 VRB04KT 3SM BR BKN003 OVC040
     FM231300 VRB04KT P6SM BKN008 OVC020
     FM231500 02005KT P6SM OVC040
      AMD LTD TO CLD VIS AND WIND=

USA.gov is the U.S. government's official web portal to all federal, state and local government web resources and services.